Time;durP1;ratioP1;P1;durP2;ratioP2;P2;SDS_P1;SDS_P2;PMS_P1;PMS_P2;Temp;Humidity;BMP_temperature;BMP_pressure;BME280_temperature;BME280_humidity;BME280_pressure;Samples;Min_cycle;Max_cycle;Signal;HPM_P1;HPM_P2
2021/05/03 00:04:40;;;;;;;13.53;12.43;;;10.60;41.40;;;;;;10507230;28;20247;-72
2021/05/03 00:09:42;;;;;;;15.43;13.47;;;10.60;41.20;;;;;;10506622;28;20259;-72
2021/05/03 00:14:45;;;;;;;14.70;13.50;;;10.60;41.20;;;;;;10514938;28;20228;-71
2021/05/03 00:19:47;;;;;;;13.93;12.83;;;10.60;41.20;;;;;;10494509;28;20243;-70
2021/05/03 00:24:49;;;;;;;14.33;13.23;;;10.60;41.00;;;;;;10509359;28;20228;-71
2021/05/03 00:29:53;;;;;;;14.70;13.50;;;10.60;40.90;;;;;;10504754;28;20318;-71
2021/05/03 00:34:55;;;;;;;15.03;13.57;;;10.40;41.00;;;;;;10495752;28;20224;-71
2021/05/03 00:39:57;;;;;;;14.20;13.00;;;10.30;41.10;;;;;;10506553;28;20231;-71
2021/05/03 00:45:09;;;;;;;12.67;11.67;;;10.30;41.20;;;;;;10508275;28;20227;-71
2021/05/03 00:50:16;;;;;;;12.90;11.90;;;10.30;41.80;;;;;;10516963;28;20243;-72
2021/05/03 00:55:18;;;;;;;13.43;12.33;;;10.30;41.60;;;;;;10514826;28;20228;-71
2021/05/03 01:00:24;;;;;;;12.60;11.50;;;10.30;41.30;;;;;;10515337;28;20687;-71
2021/05/03 01:05:28;;;;;;;11.53;10.63;;;10.30;41.60;;;;;;10520118;28;20236;-75
2021/05/03 01:10:31;;;;;;;13.13;12.03;;;10.30;41.50;;;;;;10515736;28;20259;-74
2021/05/03 01:15:34;;;;;;;14.43;13.23;;;10.30;41.50;;;;;;10513761;28;20310;-75
2021/05/03 01:20:38;;;;;;;14.33;13.13;;;10.30;41.60;;;;;;10520807;28;20323;-75
2021/05/03 01:25:42;;;;;;;13.37;12.37;;;10.30;41.50;;;;;;10526290;28;20231;-72
2021/05/03 01:30:46;;;;;;;13.50;12.33;;;10.20;41.50;;;;;;10518846;28;20226;-73
2021/05/03 01:35:49;;;;;;;12.93;11.73;;;10.20;41.60;;;;;;10523777;28;20228;-73
2021/05/03 01:40:52;;;;;;;14.17;13.07;;;10.20;41.50;;;;;;10515508;28;20324;-73
2021/05/03 01:45:57;;;;;;;14.03;12.90;;;10.10;41.30;;;;;;10523643;28;20251;-73
2021/05/03 01:51:00;;;;;;;13.30;12.10;;;10.00;41.40;;;;;;10521522;28;20228;-73
2021/05/03 01:56:03;;;;;;;12.97;11.93;;;10.00;41.40;;;;;;10518910;28;20703;-75
2021/05/03 02:01:05;;;;;;;13.97;12.77;;;9.90;42.50;;;;;;10520527;28;20700;-73
2021/05/03 02:06:08;;;;;;;12.30;11.20;;;9.90;42.40;;;;;;10517885;28;20322;-73
2021/05/03 02:11:11;;;;;;;12.63;11.63;;;9.80;42.40;;;;;;10509463;28;20258;-73
2021/05/03 02:16:13;;;;;;;11.93;11.03;;;9.90;42.60;;;;;;10518789;28;20220;-74
2021/05/03 02:21:16;;;;;;;11.40;10.50;;;9.90;42.30;;;;;;10520389;28;20243;-73
2021/05/03 02:26:19;;;;;;;10.43;9.53;;;10.00;41.30;;;;;;10516014;28;20221;-74
2021/05/03 02:31:21;;;;;;;10.00;9.20;;;10.00;41.10;;;;;;10507306;28;20314;-76
2021/05/03 02:36:23;;;;;;;11.77;10.87;;;9.90;41.70;;;;;;10503379;28;20256;-75
2021/05/03 02:41:26;;;;;;;11.47;10.57;;;9.90;41.60;;;;;;10522049;28;20286;-75
2021/05/03 02:46:29;;;;;;;9.43;8.63;;;9.90;41.50;;;;;;10512830;28;20235;-75
2021/05/03 02:51:33;;;;;;;11.40;10.47;;;9.90;41.40;;;;;;10514541;28;20252;-75
2021/05/03 02:56:36;;;;;;;12.73;11.63;;;9.80;41.20;;;;;;10513861;28;20232;-74
2021/05/03 03:01:38;;;;;;;12.73;11.63;;;9.70;41.10;;;;;;10522295;28;20703;-74
2021/05/03 03:06:41;;;;;;;11.77;10.77;;;9.60;41.80;;;;;;10509203;28;20728;-75
2021/05/03 03:11:47;;;;;;;11.60;10.70;;;9.40;41.30;;;;;;10515972;28;20638;-74
2021/05/03 03:16:49;;;;;;;12.80;11.80;;;9.30;41.70;;;;;;10509078;28;20731;-74
2021/05/03 03:21:52;;;;;;;12.40;11.40;;;9.20;41.70;;;;;;10522923;28;20333;-74
2021/05/03 03:26:55;;;;;;;12.83;11.83;;;9.10;41.70;;;;;;10498462;28;20240;-74
2021/05/03 03:31:57;;;;;;;12.27;11.27;;;9.00;41.90;;;;;;10514750;28;20243;-74
2021/05/03 03:36:59;;;;;;;11.57;10.67;;;8.90;41.80;;;;;;10520142;28;20228;-74
2021/05/03 03:42:03;;;;;;;13.20;12.07;;;8.90;42.00;;;;;;10507832;28;20223;-74
2021/05/03 03:47:05;;;;;;;12.30;11.20;;;8.90;41.90;;;;;;10516367;28;20243;-74
2021/05/03 03:52:08;;;;;;;11.13;10.23;;;8.90;41.80;;;;;;10511891;28;20285;-73
2021/05/03 03:57:11;;;;;;;10.90;10.00;;;8.80;42.00;;;;;;10507448;28;20247;-73
2021/05/03 04:02:15;;;;;;;11.00;10.10;;;8.70;42.10;;;;;;10510877;28;20232;-71
2021/05/03 04:07:22;;;;;;;11.23;10.33;;;8.70;42.10;;;;;;10505185;28;20249;-74
2021/05/03 04:12:39;;;;;;;10.50;9.70;;;8.70;42.10;;;;;;10505464;28;20257;-74
2021/05/03 04:28:36;;;;;;;10.90;10.00;;;8.80;42.00;;;;;;10515055;28;20237;-74
2021/05/03 04:33:39;;;;;;;10.83;9.87;;;8.90;42.30;;;;;;10511402;28;20311;-74
2021/05/03 04:38:42;;;;;;;12.30;11.30;;;8.90;42.20;;;;;;10514752;28;20798;-74
2021/05/03 04:43:45;;;;;;;12.63;11.60;;;8.90;42.40;;;;;;10516588;28;20913;-74
2021/05/03 04:48:49;;;;;;;13.37;12.27;;;9.00;42.30;;;;;;10511076;28;20239;-74
2021/05/03 04:53:53;;;;;;;12.73;11.73;;;9.00;42.20;;;;;;10509317;28;20649;-74
2021/05/03 04:58:56;;;;;;;13.20;12.00;;;9.00;42.40;;;;;;10519460;28;20748;-74
2021/05/03 05:03:58;;;;;;;13.53;12.30;;;8.90;42.50;;;;;;10520084;28;20255;-73
2021/05/03 05:09:04;;;;;;;16.43;15.03;;;8.90;42.60;;;;;;10516247;28;20248;-71
2021/05/03 05:14:07;;;;;;;15.03;13.73;;;8.90;43.70;;;;;;10522086;28;20239;-71
2021/05/03 05:19:09;;;;;;;16.13;14.70;;;8.90;43.60;;;;;;10512405;28;20307;-73
2021/05/03 05:24:12;;;;;;;16.53;15.07;;;9.00;43.80;;;;;;10508604;28;20219;-70
2021/05/03 05:29:15;;;;;;;16.77;15.27;;;9.10;43.90;;;;;;10509299;28;20311;-71
2021/05/03 05:34:17;;;;;;;14.90;13.60;;;9.10;44.00;;;;;;10514979;28;20227;-70
2021/05/03 05:39:19;;;;;;;15.70;14.40;;;9.30;43.90;;;;;;10518187;28;20259;-70
2021/05/03 05:44:22;;;;;;;15.77;14.47;;;9.40;43.80;;;;;;10512893;28;20319;-71
2021/05/03 05:49:25;;;;;;;15.13;13.83;;;9.50;44.00;;;;;;10510590;28;20704;-71
2021/05/03 05:54:29;;;;;;;15.90;14.60;;;9.50;43.70;;;;;;10509489;28;20217;-71
2021/05/03 05:59:33;;;;;;;13.73;12.63;;;9.60;43.70;;;;;;10512768;28;20239;-73
2021/05/03 06:04:37;;;;;;;14.03;12.83;;;9.70;43.80;;;;;;10517183;28;20670;-72
2021/05/03 06:09:40;;;;;;;15.07;13.77;;;9.70;43.90;;;;;;10519266;28;20269;-72
2021/05/03 06:14:43;;;;;;;14.27;12.97;;;9.80;44.50;;;;;;10530229;28;20734;-72
2021/05/03 06:19:46;;;;;;;14.47;13.27;;;9.80;43.80;;;;;;10513237;28;20327;-72
2021/05/03 06:24:51;;;;;;;14.03;12.83;;;9.90;44.00;;;;;;10515836;28;20228;-73
2021/05/03 06:29:54;;;;;;;14.40;12.90;;;9.90;44.30;;;;;;10513933;28;20711;-73
2021/05/03 06:34:56;;;;;;;13.70;12.57;;;10.10;43.40;;;;;;10512105;28;20459;-73
2021/05/03 06:39:58;;;;;;;14.13;12.93;;;10.20;43.90;;;;;;10516175;28;20286;-72
2021/05/03 06:45:03;;;;;;;14.60;13.30;;;10.30;43.00;;;;;;10514833;28;20266;-73
2021/05/03 06:50:06;;;;;;;13.03;11.93;;;10.40;42.90;;;;;;10508067;28;20224;-73
2021/05/03 06:55:09;;;;;;;13.00;11.90;;;10.50;42.80;;;;;;10520745;28;20875;-72
2021/05/03 07:00:15;;;;;;;11.40;10.40;;;10.60;42.90;;;;;;10515094;28;20259;-73
2021/05/03 07:05:17;;;;;;;11.43;10.43;;;10.80;42.60;;;;;;10515600;28;20880;-73
2021/05/03 07:10:19;;;;;;;11.10;10.20;;;10.90;42.20;;;;;;10509495;28;20807;-71
2021/05/03 07:15:25;;;;;;;10.13;9.33;;;11.00;41.50;;;;;;10518550;28;20227;-71
2021/05/03 07:20:28;;;;;;;9.40;8.57;;;11.10;42.10;;;;;;10518577;28;20237;-70
2021/05/03 07:25:30;;;;;;;9.83;9.00;;;11.20;41.90;;;;;;10517168;28;20251;-71
2021/05/03 07:30:33;;;;;;;8.63;7.83;;;11.30;42.20;;;;;;10527108;28;20317;-70
2021/05/03 07:35:35;;;;;;;9.03;8.30;;;11.50;41.30;;;;;;10519581;28;20302;-71
2021/05/03 07:40:38;;;;;;;9.00;8.10;;;11.60;41.30;;;;;;10503547;28;20228;-71
2021/05/03 07:45:41;;;;;;;9.43;8.53;;;11.70;41.40;;;;;;10518519;28;20280;-70
2021/05/03 07:50:44;;;;;;;7.87;7.07;;;11.80;41.50;;;;;;10519394;28;20232;-71
2021/05/03 07:55:46;;;;;;;7.93;7.20;;;11.90;40.70;;;;;;10510738;28;20713;-71
2021/05/03 08:00:50;;;;;;;7.80;7.13;;;12.00;40.40;;;;;;10514867;28;20332;-73
2021/05/03 08:05:53;;;;;;;7.70;7.10;;;12.10;39.90;;;;;;10515336;28;20228;-71
2021/05/03 08:10:56;;;;;;;7.37;6.77;;;12.20;40.20;;;;;;10521093;28;20338;-71
2021/05/03 08:16:01;;;;;;;8.00;7.30;;;12.40;40.00;;;;;;10502072;28;20242;-71
2021/05/03 08:21:04;;;;;;;8.00;7.40;;;12.50;39.50;;;;;;10486827;28;20311;-71
2021/05/03 08:26:06;;;;;;;6.90;6.40;;;12.60;39.50;;;;;;10505968;28;20649;-69
2021/05/03 08:31:10;;;;;;;7.10;6.50;;;12.70;39.60;;;;;;10488064;28;20231;-72
2021/05/03 08:36:12;;;;;;;6.57;6.07;;;12.90;39.50;;;;;;10520772;28;20300;-74
2021/05/03 08:41:16;;;;;;;7.43;6.73;;;13.10;39.90;;;;;;10503623;28;20264;-71
2021/05/03 08:46:27;;;;;;;6.93;6.33;;;13.30;40.00;;;;;;10503539;28;20212;-72
2021/05/03 08:51:36;;;;;;;6.97;6.20;;;13.60;39.10;;;;;;10502459;28;20443;-72
2021/05/03 08:56:38;;;;;;;6.77;6.20;;;13.80;38.60;;;;;;10509682;28;20224;-71
2021/05/03 09:01:45;;;;;;;6.80;6.30;;;13.90;38.80;;;;;;10502202;28;20239;-72
2021/05/03 09:07:09;;;;;;;7.40;6.70;;;14.10;37.50;;;;;;10524405;28;20227;-72
2021/05/03 09:12:13;;;;;;;7.93;7.23;;;14.30;37.60;;;;;;10537637;28;20235;-72
2021/05/03 09:17:28;;;;;;;7.30;6.60;;;14.40;36.40;;;;;;10515160;28;20224;-70
2021/05/03 09:22:34;;;;;;;7.40;6.77;;;14.40;35.00;;;;;;10517536;28;20243;-71
2021/05/03 09:27:37;;;;;;;7.00;6.40;;;14.30;37.10;;;;;;10507276;28;20228;-71
2021/05/03 09:32:40;;;;;;;7.17;6.47;;;14.30;37.70;;;;;;10518332;28;20224;-74
2021/05/03 09:37:45;;;;;;;6.97;6.37;;;14.40;37.50;;;;;;10511560;28;20261;-73
2021/05/03 09:42:50;;;;;;;6.63;6.03;;;14.60;37.10;;;;;;10505272;28;20846;-73
2021/05/03 09:47:55;;;;;;;6.73;6.13;;;14.80;36.70;;;;;;10519089;28;20231;-74
2021/05/03 09:53:05;;;;;;;6.33;5.73;;;15.00;36.20;;;;;;10507463;28;21112;-73
2021/05/03 09:58:12;;;;;;;6.37;5.50;;;15.00;33.70;;;;;;10502358;28;20290;-73
2021/05/03 10:03:38;;;;;;;6.50;5.90;;;15.00;35.00;;;;;;10524552;28;20258;-73
2021/05/03 10:08:45;;;;;;;6.57;5.97;;;15.00;33.90;;;;;;10507642;28;20228;-73
2021/05/03 10:13:51;;;;;;;5.63;5.23;;;14.90;35.20;;;;;;10506601;28;20281;-74
2021/05/03 10:18:54;;;;;;;6.93;6.40;;;14.90;34.70;;;;;;10520761;28;20258;-73
2021/05/03 10:23:57;;;;;;;7.27;6.57;;;14.80;35.00;;;;;;10514041;28;20263;-73
2021/05/03 10:29:00;;;;;;;5.57;5.07;;;14.70;35.60;;;;;;10506015;28;20320;-74
2021/05/03 10:34:04;;;;;;;6.07;5.53;;;14.60;35.30;;;;;;10520215;28;20224;-74
2021/05/03 10:39:35;;;;;;;6.00;5.50;;;14.70;34.80;;;;;;10511159;28;20304;-73
2021/05/03 10:44:40;;;;;;;5.90;5.50;;;14.70;35.10;;;;;;10507941;28;20734;-73
2021/05/03 10:49:46;;;;;;;6.37;5.80;;;14.60;34.70;;;;;;10509918;28;20254;-73
2021/05/03 10:54:53;;;;;;;5.97;5.40;;;14.50;35.40;;;;;;10511421;28;20281;-73
2021/05/03 10:59:58;;;;;;;6.43;5.83;;;14.50;34.80;;;;;;10504643;28;20792;-74
2021/05/03 11:05:23;;;;;;;6.73;6.23;;;14.50;34.50;;;;;;10514023;28;20244;-73
2021/05/03 11:10:56;;;;;;;6.40;5.80;;;14.60;33.00;;;;;;10499144;28;20727;-74
2021/05/03 11:15:58;;;;;;;5.80;5.20;;;14.50;32.30;;;;;;10508726;28;20282;-73
2021/05/03 11:21:07;;;;;;;6.23;5.70;;;14.50;34.10;;;;;;10508300;28;20310;-74
2021/05/03 11:26:27;;;;;;;5.80;5.40;;;14.40;33.40;;;;;;10508964;28;20228;-73
2021/05/03 11:31:31;;;;;;;5.37;4.87;;;14.30;33.90;;;;;;10503234;28;20231;-73
2021/05/03 11:36:38;;;;;;;5.63;5.23;;;14.30;34.70;;;;;;10519707;28;20227;-73
2021/05/03 11:47:04;;;;;;;5.80;5.30;;;14.30;34.20;;;;;;10515464;28;20302;-74
2021/05/03 11:52:26;;;;;;;6.30;5.80;;;14.50;34.40;;;;;;10512646;28;20232;-74
2021/05/03 11:57:31;;;;;;;6.03;5.57;;;14.60;32.70;;;;;;10501412;28;20234;-74
2021/05/03 12:02:34;;;;;;;5.73;5.33;;;14.80;33.30;;;;;;10515020;28;20653;-74
2021/05/03 12:07:37;;;;;;;5.47;5.07;;;15.00;33.80;;;;;;10502180;28;20640;-73
2021/05/03 12:12:41;;;;;;;5.67;5.17;;;15.10;33.20;;;;;;10505411;28;20232;-73
2021/05/03 12:17:44;;;;;;;4.87;4.47;;;15.30;32.40;;;;;;10507279;28;20234;-73
2021/05/03 12:23:00;;;;;;;5.00;4.60;;;15.40;33.10;;;;;;10510592;28;20726;-73
2021/05/03 12:28:08;;;;;;;4.60;4.20;;;15.40;32.50;;;;;;10508157;28;20297;-73
2021/05/03 12:33:13;;;;;;;3.90;3.60;;;15.50;32.50;;;;;;10506186;28;20771;-73
2021/05/03 12:38:18;;;;;;;4.40;4.00;;;15.60;32.60;;;;;;10517193;28;20255;-73
2021/05/03 12:43:25;;;;;;;4.37;4.00;;;15.80;31.90;;;;;;10515717;28;20228;-75
2021/05/03 12:48:35;;;;;;;4.57;4.23;;;15.80;32.30;;;;;;10512502;28;20886;-73
2021/05/03 12:54:13;;;;;;;4.47;4.07;;;15.90;32.00;;;;;;10511037;28;20303;-74
2021/05/03 12:59:21;;;;;;;5.60;4.70;;;16.00;31.30;;;;;;10528068;28;20228;-74
2021/05/03 13:04:34;;;;;;;5.10;4.70;;;16.00;32.00;;;;;;10517581;27;20311;-75
2021/05/03 13:09:57;;;;;;;4.37;4.07;;;16.10;31.20;;;;;;10516739;28;20231;-74
2021/05/03 13:31:26;;;;;;;4.23;3.83;;;16.40;29.60;;;;;;10514322;28;20228;-74
2021/05/03 13:36:29;;;;;;;4.60;4.10;;;16.40;30.30;;;;;;10516510;28;20638;-74
2021/05/03 13:41:35;;;;;;;4.40;4.00;;;16.40;30.00;;;;;;10513100;28;20283;-74
2021/05/03 13:46:38;;;;;;;3.83;3.60;;;16.50;29.80;;;;;;10513874;28;20293;-73
2021/05/03 13:51:42;;;;;;;9.13;8.23;;;16.50;30.70;;;;;;10509404;28;20231;-74
2021/05/03 13:56:45;;;;;;;3.93;3.63;;;16.60;30.00;;;;;;10521974;28;20255;-74
2021/05/03 14:01:48;;;;;;;4.63;4.23;;;16.70;29.80;;;;;;10516332;28;20271;-75
2021/05/03 14:06:52;;;;;;;4.53;4.23;;;16.80;30.20;;;;;;10517672;28;20278;-74
2021/05/03 14:11:55;;;;;;;5.17;4.70;;;16.90;29.80;;;;;;10514554;28;20348;-74
2021/05/03 14:17:01;;;;;;;5.20;4.80;;;16.90;29.00;;;;;;10516388;28;20220;-73
2021/05/03 14:22:04;;;;;;;4.80;4.50;;;16.90;29.60;;;;;;10509635;28;20248;-74
2021/05/03 14:27:08;;;;;;;5.00;4.60;;;16.90;29.50;;;;;;10511219;28;20239;-74
2021/05/03 14:32:14;;;;;;;4.20;3.90;;;17.00;29.80;;;;;;10511658;28;20305;-74
2021/05/03 14:37:17;;;;;;;4.57;4.17;;;17.00;28.90;;;;;;10516086;28;20220;-74
2021/05/03 14:42:21;;;;;;;4.60;4.20;;;17.00;29.60;;;;;;10515344;28;20239;-73
2021/05/03 14:47:28;;;;;;;4.70;4.40;;;17.00;29.50;;;;;;10511002;28;20632;-74
2021/05/03 14:52:42;;;;;;;5.03;4.63;;;17.10;29.40;;;;;;10504635;28;20220;-74
2021/05/03 14:57:45;;;;;;;5.43;5.03;;;17.10;29.40;;;;;;10513280;28;20311;-74
2021/05/03 15:02:47;;;;;;;5.60;5.20;;;17.10;28.70;;;;;;10512830;28;20610;-75
2021/05/03 15:07:50;;;;;;;5.40;4.90;;;17.10;28.70;;;;;;10515057;28;20228;-74
2021/05/03 15:12:56;;;;;;;4.60;4.30;;;17.10;29.00;;;;;;10515129;28;20312;-74
2021/05/03 15:18:16;;;;;;;5.50;5.00;;;17.10;28.80;;;;;;10509137;28;20228;-74
2021/05/03 15:23:18;;;;;;;4.63;4.33;;;17.20;29.10;;;;;;10504886;28;20243;-74
2021/05/03 15:28:32;;;;;;;5.40;5.00;;;17.30;29.10;;;;;;10506183;28;20315;-74
2021/05/03 15:33:36;;;;;;;5.13;4.73;;;17.30;28.80;;;;;;10501448;28;20239;-74
2021/05/03 15:38:39;;;;;;;5.53;5.03;;;17.30;28.70;;;;;;10499714;28;20255;-74
2021/05/03 15:43:43;;;;;;;4.50;4.20;;;17.30;28.50;;;;;;10500083;28;20266;-74
2021/05/03 15:48:46;;;;;;;4.87;4.47;;;17.30;27.90;;;;;;10513829;28;20246;-75
2021/05/03 15:53:48;;;;;;;4.77;4.47;;;17.30;28.50;;;;;;10514414;28;20251;-74
2021/05/03 15:58:52;;;;;;;5.07;4.67;;;17.30;28.50;;;;;;10505306;28;20236;-75
2021/05/03 16:03:55;;;;;;;5.50;5.10;;;17.20;27.90;;;;;;10514262;28;20240;-74
2021/05/03 16:08:58;;;;;;;5.10;4.60;;;17.20;28.20;;;;;;10503694;28;20323;-74
2021/05/03 16:14:01;;;;;;;5.07;4.70;;;17.10;28.30;;;;;;10506914;28;20244;-74
2021/05/03 16:19:04;;;;;;;4.50;4.20;;;17.10;28.00;;;;;;10507434;28;20227;-74
2021/05/03 16:24:07;;;;;;;4.37;4.07;;;17.20;28.40;;;;;;10507089;28;20232;-74
2021/05/03 16:29:12;;;;;;;4.17;3.87;;;17.30;28.20;;;;;;10514173;28;20230;-74
2021/05/03 16:34:16;;;;;;;4.57;4.13;;;17.30;28.00;;;;;;10511212;28;20695;-74
2021/05/03 16:39:19;;;;;;;3.97;3.67;;;17.30;27.20;;;;;;10509698;28;20228;-74
2021/05/03 16:44:22;;;;;;;5.00;4.60;;;17.30;27.80;;;;;;10522974;28;20598;-74
2021/05/03 16:49:24;;;;;;;4.87;4.50;;;17.30;27.30;;;;;;10504871;28;20239;-74
2021/05/03 16:54:27;;;;;;;4.40;4.10;;;17.20;27.70;;;;;;10505354;28;20251;-74
2021/05/03 16:59:30;;;;;;;4.00;3.77;;;17.20;27.70;;;;;;10511927;28;20224;-74
2021/05/03 17:04:32;;;;;;;4.17;3.83;;;17.10;27.20;;;;;;10512778;28;20223;-75
2021/05/03 17:09:39;;;;;;;4.27;3.70;;;17.10;27.60;;;;;;10520020;28;20251;-74
2021/05/03 17:14:42;;;;;;;4.00;3.67;;;17.20;27.80;;;;;;10522054;28;20269;-74
2021/05/03 17:19:47;;;;;;;5.00;4.60;;;17.10;27.60;;;;;;10507614;28;20320;-74
2021/05/03 17:24:49;;;;;;;6.40;5.40;;;17.10;27.80;;;;;;10519744;28;20261;-75
2021/05/03 17:29:52;;;;;;;3.87;3.57;;;17.10;27.90;;;;;;10517174;28;21152;-74
2021/05/03 17:34:54;;;;;;;4.57;4.17;;;17.10;27.70;;;;;;10510655;28;20315;-74
2021/05/03 17:39:57;;;;;;;3.50;3.30;;;17.10;27.80;;;;;;10518818;28;20285;-75
2021/05/03 17:45:00;;;;;;;3.60;3.10;;;17.10;27.80;;;;;;10526170;28;20281;-75
2021/05/03 17:50:04;;;;;;;3.40;3.20;;;17.10;27.40;;;;;;10515517;28;20698;-74
2021/05/03 17:55:09;;;;;;;2.90;2.70;;;17.10;27.60;;;;;;10520505;28;20274;-75
2021/05/03 18:00:13;;;;;;;3.37;3.10;;;17.10;28.00;;;;;;10519212;28;20228;-74
2021/05/03 18:05:15;;;;;;;4.03;3.63;;;17.10;28.30;;;;;;10518922;28;20719;-74
2021/05/03 18:10:18;;;;;;;3.23;3.03;;;17.10;28.50;;;;;;10517444;28;20240;-75
2021/05/03 18:15:22;;;;;;;2.70;2.50;;;17.00;28.60;;;;;;10515654;28;20312;-74
2021/05/03 18:20:24;;;;;;;3.10;2.60;;;16.90;28.70;;;;;;10522757;28;20247;-74
2021/05/03 18:25:26;;;;;;;2.33;2.23;;;16.90;29.20;;;;;;10515081;28;20248;-74
2021/05/03 18:30:29;;;;;;;6.70;2.10;;;16.90;29.30;;;;;;10500618;28;20255;-74
2021/05/03 18:35:32;;;;;;;3.80;2.50;;;16.80;29.30;;;;;;10522751;27;20316;-74
2021/05/03 18:40:34;;;;;;;9.67;2.93;;;16.70;28.90;;;;;;10516925;28;20235;-74
2021/05/03 18:45:40;;;;;;;3.60;3.10;;;16.60;28.80;;;;;;10511194;28;20223;-74
2021/05/03 18:50:42;;;;;;;10.07;4.00;;;16.50;28.90;;;;;;10515331;28;20259;-74
2021/05/03 18:55:46;;;;;;;4.10;3.40;;;16.50;29.10;;;;;;10513940;28;20223;-75
2021/05/03 19:00:49;;;;;;;3.47;2.80;;;16.40;29.00;;;;;;10509006;28;20285;-75
2021/05/03 19:05:59;;;;;;;3.03;2.73;;;16.20;28.90;;;;;;10518369;28;20303;-75
2021/05/03 19:11:02;;;;;;;4.10;3.33;;;16.10;28.90;;;;;;10512438;28;20257;-75
2021/05/03 19:16:05;;;;;;;4.47;4.07;;;16.00;29.00;;;;;;10507606;28;20285;-75
2021/05/03 19:21:08;;;;;;;5.00;4.60;;;15.90;29.10;;;;;;10516644;28;20600;-75
2021/05/03 19:26:10;;;;;;;4.83;4.43;;;15.80;29.00;;;;;;10514420;28;21170;-75
2021/05/03 19:31:22;;;;;;;5.03;4.53;;;15.70;29.10;;;;;;10517734;28;20274;-74
2021/05/03 19:36:24;;;;;;;5.10;4.60;;;15.50;29.10;;;;;;10514976;28;20232;-75
2021/05/03 19:41:27;;;;;;;4.77;4.37;;;15.40;29.20;;;;;;10512644;28;20648;-75
2021/05/03 19:46:35;;;;;;;4.80;4.40;;;15.40;29.40;;;;;;10514535;28;20750;-75
2021/05/03 19:51:47;;;;;;;5.03;4.53;;;15.30;29.40;;;;;;10518241;28;20226;-75
2021/05/03 19:57:10;;;;;;;4.40;4.00;;;15.20;29.40;;;;;;10518129;28;20315;-75
2021/05/03 20:07:46;;;;;;;4.17;3.87;;;15.00;29.50;;;;;;10440337;28;20216;-75
2021/05/03 20:12:48;;;;;;;3.83;3.57;;;14.90;29.60;;;;;;10522648;28;20216;-74
2021/05/03 20:17:52;;;;;;;4.90;4.37;;;14.80;29.60;;;;;;10509360;28;20707;-74
2021/05/03 20:22:55;;;;;;;4.60;4.20;;;14.70;29.70;;;;;;10520213;28;20226;-74
2021/05/03 20:27:58;;;;;;;6.27;4.50;;;14.60;29.70;;;;;;10514557;28;20228;-74
2021/05/03 20:33:02;;;;;;;4.13;3.83;;;14.60;29.80;;;;;;10508328;28;20568;-74
2021/05/03 20:43:32;;;;;;;5.33;4.83;;;14.40;29.80;;;;;;10506852;28;20582;-74
2021/05/03 20:48:35;;;;;;;4.83;4.43;;;14.30;29.80;;;;;;10516857;28;20231;-74
2021/05/03 20:53:38;;;;;;;4.33;4.03;;;14.20;29.80;;;;;;10515329;28;20278;-74
2021/05/03 20:58:40;;;;;;;4.30;4.00;;;14.10;29.80;;;;;;10511432;28;20259;-74
2021/05/03 21:03:43;;;;;;;5.77;5.23;;;14.00;30.40;;;;;;10517398;28;20742;-74
2021/05/03 21:08:46;;;;;;;5.57;5.07;;;14.00;29.90;;;;;;10526520;28;20303;-74
2021/05/03 21:13:59;;;;;;;5.03;4.53;;;13.90;29.90;;;;;;10518440;28;20231;-74
2021/05/03 21:19:02;;;;;;;5.20;4.70;;;13.80;30.00;;;;;;10514482;28;20228;-74
2021/05/03 21:24:05;;;;;;;5.20;4.80;;;13.70;29.90;;;;;;10516526;28;20262;-74
2021/05/03 21:29:07;;;;;;;5.27;4.87;;;13.60;29.90;;;;;;10504776;28;20238;-74
2021/05/03 21:34:14;;;;;;;4.80;4.40;;;13.40;29.90;;;;;;10506351;28;20231;-73
2021/05/03 21:39:16;;;;;;;4.17;3.87;;;13.20;30.20;;;;;;10518225;28;20227;-73
2021/05/03 21:44:18;;;;;;;4.33;4.00;;;13.10;30.40;;;;;;10519307;28;20252;-72
2021/05/03 21:49:22;;;;;;;4.53;4.13;;;12.90;30.30;;;;;;10519286;28;21278;-75
2021/05/03 21:54:24;;;;;;;4.50;4.10;;;12.80;30.90;;;;;;10512035;28;20224;-73
2021/05/03 21:59:27;;;;;;;4.63;4.33;;;12.70;30.10;;;;;;10514311;28;20274;-74
2021/05/03 22:04:30;;;;;;;6.23;5.70;;;12.70;30.10;;;;;;10512591;28;20751;-73
2021/05/03 22:09:32;;;;;;;5.63;4.90;;;12.60;30.00;;;;;;10516337;28;20240;-73
2021/05/03 22:14:35;;;;;;;5.47;4.83;;;12.50;30.00;;;;;;10516300;28;20708;-73
2021/05/03 22:19:49;;;;;;;4.87;4.47;;;12.30;29.90;;;;;;10512999;28;20331;-74
2021/05/03 22:24:51;;;;;;;6.07;5.57;;;12.20;30.30;;;;;;10513266;28;20746;-73
2021/05/03 22:29:54;;;;;;;8.47;7.37;;;12.10;30.30;;;;;;10516151;28;20224;-73
2021/05/03 22:34:57;;;;;;;6.63;6.03;;;12.00;30.50;;;;;;10513442;28;20278;-73
2021/05/03 22:40:11;;;;;;;5.77;5.27;;;11.90;30.50;;;;;;10510424;28;20699;-73
2021/05/03 23:07:05;;;;;;;9.47;7.90;;;11.50;30.80;;;;;;10509552;28;20235;-72
2021/05/03 23:17:37;;;;;;;10.33;6.37;;;11.30;30.80;;;;;;10503788;28;20216;-72
2021/05/03 23:22:40;;;;;;;5.53;5.03;;;11.20;30.70;;;;;;10503092;28;20220;-72
2021/05/03 23:27:45;;;;;;;5.67;5.17;;;11.10;31.00;;;;;;10494087;28;20231;-72
2021/05/03 23:32:47;;;;;;;5.80;5.30;;;10.90;31.10;;;;;;10493739;28;20244;-72
2021/05/03 23:37:50;;;;;;;5.17;4.67;;;10.90;31.30;;;;;;10499887;28;20230;-72
2021/05/03 23:42:53;;;;;;;5.80;5.30;;;10.80;31.40;;;;;;10506708;28;20223;-72
2021/05/03 23:47:55;;;;;;;4.70;4.30;;;10.80;31.30;;;;;;10509932;28;20319;-72
2021/05/03 23:52:58;;;;;;;5.07;4.57;;;10.80;31.30;;;;;;10506079;28;20307;-72
2021/05/03 23:58:01;;;;;;;4.27;3.93;;;10.80;31.30;;;;;;10503452;28;20256;-72
